Time;durP1;ratioP1;P1;durP2;ratioP2;P2;SDS_P1;SDS_P2;PMS_P1;PMS_P2;Temp;Humidity;BMP_temperature;BMP_pressure;BME280_temperature;BME280_humidity;BME280_pressure;Samples;Min_cycle;Max_cycle;Signal;HPM_P1;HPM_P2
2021/10/30 00:01:50;;;;;;;44.50;22.48;;;;;;;3.13;100.00;99359.06;4361569;79;28585;-85
2021/10/30 00:07:51;;;;;;;47.65;23.73;;;;;;;3.01;100.00;99350.16;4353762;79;28502;-84
2021/10/30 00:13:52;;;;;;;47.90;23.77;;;;;;;2.91;100.00;99359.65;4392908;79;28500;-84
2021/10/30 00:19:54;;;;;;;42.30;21.52;;;;;;;3.04;100.00;99352.97;4343480;79;28515;-82
2021/10/30 00:25:55;;;;;;;38.48;19.60;;;;;;;2.79;100.00;99349.93;4363050;79;28468;-85
2021/10/30 00:31:57;;;;;;;42.03;20.10;;;;;;;2.68;100.00;99354.30;4373308;79;28482;-86
2021/10/30 00:37:59;;;;;;;43.70;21.87;;;;;;;2.90;100.00;99343.91;4369327;79;28443;-84
2021/10/30 00:44:10;;;;;;;44.95;22.48;;;;;;;2.90;100.00;99350.55;4369981;79;28457;-84
2021/10/30 00:50:11;;;;;;;44.53;22.87;;;;;;;2.77;100.00;99342.64;4353172;79;28466;-84
2021/10/30 00:56:14;;;;;;;40.83;20.97;;;;;;;2.77;100.00;99344.45;4347002;80;28466;-85
2021/10/30 01:02:16;;;;;;;44.08;21.15;;;;;;;2.71;100.00;99335.84;4338041;80;28516;-83
2021/10/30 01:08:19;;;;;;;53.45;24.05;;;;;;;2.76;100.00;99344.13;4276117;81;28484;-85
2021/10/30 01:14:21;;;;;;;48.45;23.15;;;;;;;3.03;100.00;99330.07;4290518;81;28866;-83
2021/10/30 01:20:26;;;;;;;50.08;24.37;;;;;;;2.71;100.00;99333.19;4280956;81;28469;-83
2021/10/30 01:26:29;;;;;;;52.62;24.47;;;;;;;2.81;100.00;99323.70;4359784;80;28554;-84
2021/10/30 01:32:32;;;;;;;48.08;24.07;;;;;;;2.86;100.00;99303.59;4308994;81;28535;-83
2021/10/30 01:38:34;;;;;;;43.90;21.02;;;;;;;2.76;100.00;99306.95;4364512;80;28539;-84
2021/10/30 01:44:35;;;;;;;42.85;21.33;;;;;;;2.47;100.00;99309.73;4291583;81;28521;-85
2021/10/30 01:50:41;;;;;;;48.08;21.82;;;;;;;2.59;100.00;99311.52;4369336;80;28555;-84
2021/10/30 01:56:42;;;;;;;46.77;23.35;;;;;;;2.62;100.00;99303.20;4382428;81;28486;-84
2021/10/30 02:02:44;;;;;;;52.62;24.82;;;;;;;2.63;100.00;99299.54;4370081;81;28486;-85
2021/10/30 02:08:45;;;;;;;46.77;22.42;;;;;;;2.82;100.00;99286.84;4350046;81;28480;-84
2021/10/30 02:14:46;;;;;;;40.52;20.88;;;;;;;2.58;100.00;99286.78;4371935;81;28450;-85
2021/10/30 02:20:47;;;;;;;42.93;21.42;;;;;;;2.46;100.00;99290.34;4372010;80;28507;-85
2021/10/30 02:26:49;;;;;;;45.00;22.62;;;;;;;2.39;100.00;99285.86;4363134;81;28503;-85
2021/10/30 02:32:52;;;;;;;46.65;22.77;;;;;;;2.35;100.00;99284.08;4380643;81;28538;-85
2021/10/30 02:38:53;;;;;;;41.40;21.70;;;;;;;2.30;100.00;99279.77;4362162;81;28442;-84
2021/10/30 02:44:55;;;;;;;44.65;21.80;;;;;;;2.02;100.00;99291.63;4411827;81;28450;-85
2021/10/30 02:50:57;;;;;;;45.88;21.80;;;;;;;2.26;100.00;99277.95;4370617;80;28530;-84
2021/10/30 02:56:58;;;;;;;46.58;22.73;;;;;;;2.43;100.00;99279.23;4361805;80;28565;-83
2021/10/30 03:02:59;;;;;;;50.45;23.40;;;;;;;2.76;100.00;99281.24;4364600;80;28481;-82
2021/10/30 03:09:02;;;;;;;50.63;24.75;;;;;;;2.81;100.00;99276.70;4375915;80;28489;-83
2021/10/30 03:15:04;;;;;;;54.65;25.08;;;;;;;2.89;100.00;99277.19;4368990;81;28491;-81
2021/10/30 03:21:06;;;;;;;51.70;23.47;;;;;;;2.69;100.00;99281.60;4450436;80;28458;-84
2021/10/30 03:27:07;;;;;;;44.03;20.72;;;;;;;2.59;100.00;99270.37;4451404;79;28463;-82
2021/10/30 03:33:12;;;;;;;39.45;20.52;;;;;;;2.75;100.00;99272.11;4450588;79;28457;-83
2021/10/30 03:39:13;;;;;;;45.52;22.77;;;;;;;2.56;100.00;99267.55;4451241;80;28431;-84
2021/10/30 03:45:14;;;;;;;49.53;23.65;;;;;;;2.75;100.00;99271.59;4451263;80;28511;-85
2021/10/30 03:51:15;;;;;;;54.35;24.90;;;;;;;2.87;100.00;99268.05;4451510;80;28531;-85
2021/10/30 03:57:17;;;;;;;53.90;25.45;;;;;;;2.80;100.00;99264.44;4451506;79;28496;-87
2021/10/30 04:03:18;;;;;;;48.17;23.80;;;;;;;2.77;100.00;99270.95;4441220;79;28441;-87
2021/10/30 04:09:21;;;;;;;48.68;23.05;;;;;;;2.76;100.00;99269.78;4451769;80;28477;-84
2021/10/30 04:15:22;;;;;;;54.38;24.00;;;;;;;2.88;100.00;99261.73;4453335;80;28520;-83
2021/10/30 04:21:25;;;;;;;54.83;25.80;;;;;;;2.90;100.00;99268.22;4453379;79;28469;-84
2021/10/30 04:27:26;;;;;;;52.50;24.70;;;;;;;3.03;100.00;99255.69;4439127;79;28448;-83
2021/10/30 04:33:28;;;;;;;47.78;23.80;;;;;;;3.12;100.00;99247.15;4435149;79;28468;-84
2021/10/30 04:39:29;;;;;;;44.63;21.20;;;;;;;3.13;100.00;99238.17;4446658;79;28529;-84
2021/10/30 04:45:32;;;;;;;44.80;21.95;;;;;;;2.93;100.00;99230.67;4446382;79;28456;-82
2021/10/30 04:51:33;;;;;;;51.15;23.73;;;;;;;2.77;100.00;99239.57;4453074;79;28477;-83
2021/10/30 04:57:34;;;;;;;47.20;23.05;;;;;;;2.57;100.00;99231.23;4446515;79;28495;-83
2021/10/30 05:03:36;;;;;;;44.55;22.70;;;;;;;2.63;100.00;99224.72;4453735;78;28474;-83
2021/10/30 05:09:37;;;;;;;46.95;23.02;;;;;;;2.64;100.00;99222.87;4384356;80;28460;-83
2021/10/30 05:15:39;;;;;;;43.73;22.37;;;;;;;2.62;100.00;99213.78;4368715;80;28529;-83
2021/10/30 05:21:40;;;;;;;39.83;20.15;;;;;;;2.59;100.00;99218.09;4373350;81;28494;-82
2021/10/30 05:27:41;;;;;;;42.33;20.82;;;;;;;2.65;100.00;99220.05;4354303;82;28567;-83
2021/10/30 05:33:45;;;;;;;50.08;22.82;;;;;;;2.62;100.00;99214.27;4370859;81;29102;-83
2021/10/30 05:40:07;;;;;;;45.50;23.15;;;;;;;2.59;100.00;99219.41;4333855;80;28503;-82
2021/10/30 05:46:08;;;;;;;45.05;23.50;;;;;;;2.50;100.00;99208.03;4394189;80;28488;-84
2021/10/30 05:52:11;;;;;;;40.23;20.05;;;;;;;2.52;100.00;99203.88;4442003;79;28485;-83
2021/10/30 05:58:12;;;;;;;42.27;20.35;;;;;;;2.56;100.00;99210.48;4453276;79;28461;-81
2021/10/30 06:04:14;;;;;;;41.83;20.60;;;;;;;2.61;100.00;99221.91;4453486;79;28610;-82
2021/10/30 06:10:15;;;;;;;40.03;19.73;;;;;;;2.87;100.00;99220.25;4454157;79;28465;-82
2021/10/30 06:16:17;;;;;;;46.45;22.05;;;;;;;2.96;100.00;99211.71;4436245;80;28454;-83
2021/10/30 06:22:19;;;;;;;52.08;23.55;;;;;;;3.31;100.00;99209.46;4445517;80;28448;-81
2021/10/30 06:28:20;;;;;;;43.48;21.87;;;;;;;3.40;100.00;99216.85;4450571;79;28473;-83
2021/10/30 06:34:22;;;;;;;43.58;19.57;;;;;;;3.55;100.00;99220.88;4428903;79;28445;-85
2021/10/30 06:40:24;;;;;;;42.75;18.73;;;;;;;3.74;100.00;99233.33;4419082;78;28581;-90
2021/10/30 06:46:25;;;;;;;35.75;18.37;;;;;;;3.93;100.00;99233.81;4420368;79;28543;-81
2021/10/30 06:52:37;;;;;;;40.43;19.42;;;;;;;4.13;100.00;99231.41;4416804;79;28455;-84
2021/10/30 06:58:41;;;;;;;40.03;19.32;;;;;;;4.42;100.00;99243.86;4378377;79;28483;-84
2021/10/30 07:04:42;;;;;;;38.02;18.32;;;;;;;4.59;100.00;99244.50;4405444;79;28492;-83
2021/10/30 07:10:44;;;;;;;40.58;19.82;;;;;;;4.81;100.00;99238.36;4418350;79;28494;-84
2021/10/30 07:16:45;;;;;;;38.75;19.48;;;;;;;4.82;100.00;99240.02;4333299;80;28540;-82
2021/10/30 07:22:50;;;;;;;34.20;16.75;;;;;;;5.01;100.00;99239.39;4330639;82;28460;-85
2021/10/30 07:28:51;;;;;;;37.08;16.67;;;;;;;5.18;100.00;99255.16;4338634;80;28517;-82
2021/10/30 07:34:53;;;;;;;31.20;14.33;;;;;;;5.50;100.00;99246.30;4337467;80;28480;-81
2021/10/30 07:40:54;;;;;;;38.25;16.35;;;;;;;5.89;100.00;99253.45;4335187;80;28469;-82
2021/10/30 07:46:56;;;;;;;31.97;17.17;;;;;;;6.14;100.00;99240.50;4327716;80;28558;-82
2021/10/30 07:52:59;;;;;;;36.03;16.70;;;;;;;6.39;100.00;99248.00;4442963;78;28481;-81
2021/10/30 07:59:00;;;;;;;32.13;16.00;;;;;;;6.62;100.00;99234.03;4408761;78;28461;-82
2021/10/30 08:05:02;;;;;;;31.57;15.32;;;;;;;6.84;100.00;99242.21;4418383;78;28452;-81
2021/10/30 08:11:04;;;;;;;31.97;16.27;;;;;;;6.97;100.00;99236.08;4418662;79;28507;-79
2021/10/30 08:17:07;;;;;;;24.15;12.82;;;;;;;7.22;100.00;99238.70;4415045;78;28488;-83
2021/10/30 08:23:08;;;;;;;29.63;13.78;;;;;;;7.42;100.00;99240.03;4416676;79;28502;-80
2021/10/30 08:29:10;;;;;;;30.37;14.85;;;;;;;7.70;100.00;99232.81;4417649;78;28454;-83
2021/10/30 08:35:12;;;;;;;29.25;14.60;;;;;;;7.99;100.00;99245.45;4408835;78;28461;-80
2021/10/30 08:41:13;;;;;;;29.40;14.47;;;;;;;8.23;100.00;99244.78;4421234;79;28518;-79
2021/10/30 08:47:18;;;;;;;27.80;14.60;;;;;;;8.56;100.00;99247.59;4412958;79;28450;-82
2021/10/30 08:53:22;;;;;;;31.68;15.30;;;;;;;8.63;100.00;99239.81;4416307;78;28537;-82
2021/10/30 08:59:46;;;;;;;30.27;15.45;;;;;;;8.84;100.00;99233.84;4401954;79;28491;-83
2021/10/30 09:05:51;;;;;;;30.23;14.93;;;;;;;9.14;100.00;99228.39;4331379;80;28493;-80
2021/10/30 09:11:59;;;;;;;30.07;15.17;;;;;;;9.29;99.77;99225.39;4347928;80;28469;-82
2021/10/30 09:18:06;;;;;;;30.90;15.75;;;;;;;9.47;100.00;99225.97;4373486;79;28468;-76
2021/10/30 09:24:13;;;;;;;30.95;16.23;;;;;;;9.66;100.00;99215.28;4386051;79;28464;-81
2021/10/30 09:30:28;;;;;;;31.52;14.95;;;;;;;9.91;99.08;99228.67;4381488;79;28437;-82
2021/10/30 09:36:34;;;;;;;28.42;15.30;;;;;;;10.09;100.00;99223.03;4372491;79;28467;-82
2021/10/30 09:42:35;;;;;;;32.90;16.13;;;;;;;10.30;99.13;99209.65;4390199;78;34159;-81
2021/10/30 09:48:41;;;;;;;35.90;17.42;;;;;;;10.44;100.00;99202.28;4420685;78;28505;-83
2021/10/30 09:54:47;;;;;;;30.65;15.65;;;;;;;10.68;100.00;99201.06;4348612;80;28484;-83
2021/10/30 10:00:48;;;;;;;25.85;13.83;;;;;;;10.88;100.00;99198.91;4335486;80;28478;-82
2021/10/30 10:06:50;;;;;;;25.43;14.07;;;;;;;11.00;95.40;99197.59;4345707;80;28528;-82
2021/10/30 10:12:53;;;;;;;23.42;12.93;;;;;;;11.19;93.60;99199.38;4398821;79;28543;-82
2021/10/30 10:18:58;;;;;;;26.90;13.80;;;;;;;11.38;86.56;99194.20;4394396;79;28469;-81
2021/10/30 10:25:25;;;;;;;27.20;13.83;;;;;;;11.53;89.91;99172.75;4398038;79;28484;-81
2021/10/30 10:31:26;;;;;;;25.48;12.93;;;;;;;11.94;79.54;99169.61;4342752;80;28471;-80
2021/10/30 10:37:28;;;;;;;19.92;11.10;;;;;;;12.24;78.14;99159.72;4365329;80;28454;-80
2021/10/30 10:43:44;;;;;;;18.85;9.98;;;;;;;12.48;80.08;99163.68;4318371;80;28549;-80
2021/10/30 10:49:48;;;;;;;20.92;10.78;;;;;;;12.50;77.04;99147.55;4336838;80;28494;-81
2021/10/30 10:55:56;;;;;;;20.25;9.75;;;;;;;12.71;77.35;99142.53;4349360;80;28537;-78
2021/10/30 11:02:19;;;;;;;15.75;7.60;;;;;;;13.31;69.90;99140.28;4354070;80;28461;-81
2021/10/30 11:08:25;;;;;;;15.43;7.40;;;;;;;13.36;74.15;99131.44;4342186;80;28489;-79
2021/10/30 11:14:28;;;;;;;14.43;7.15;;;;;;;13.37;72.71;99129.02;4353237;80;28456;-82
2021/10/30 11:21:20;;;;;;;13.62;6.90;;;;;;;13.59;69.91;99119.66;4349640;80;28498;-85
2021/10/30 11:27:21;;;;;;;10.00;5.83;;;;;;;13.86;67.47;99118.11;4350470;80;28506;-86
2021/10/30 11:33:30;;;;;;;11.18;6.35;;;;;;;14.50;62.99;99106.64;4361213;80;28421;-87
2021/10/30 11:39:31;;;;;;;14.23;6.83;;;;;;;14.59;63.46;99096.20;4349126;80;28566;-85
2021/10/30 11:45:35;;;;;;;11.68;5.92;;;;;;;14.78;63.31;99093.95;4361700;80;28458;-85
2021/10/30 11:51:41;;;;;;;12.23;5.97;;;;;;;14.77;64.44;99092.32;4423635;78;28862;-85
2021/10/30 11:57:45;;;;;;;11.00;5.58;;;;;;;15.19;59.09;99081.25;4326728;80;28470;-85
2021/10/30 12:03:48;;;;;;;11.85;5.50;;;;;;;15.77;54.96;99070.18;4394350;79;28481;-84
2021/10/30 12:09:50;;;;;;;11.83;5.90;;;;;;;15.57;58.00;99070.39;4425097;79;28456;-84
2021/10/30 12:15:51;;;;;;;10.03;5.33;;;;;;;15.87;53.53;99063.44;4399200;79;28445;-83
2021/10/30 12:22:13;;;;;;;7.40;4.40;;;;;;;16.07;53.30;99059.76;4406542;79;28493;-84
2021/10/30 12:28:16;;;;;;;11.73;5.62;;;;;;;15.92;55.02;99044.25;4444899;79;28514;-85
2021/10/30 12:34:25;;;;;;;10.45;5.28;;;;;;;16.10;51.94;99047.84;4429219;77;28478;-85
2021/10/30 12:40:35;;;;;;;8.73;4.75;;;;;;;16.40;52.29;99046.27;4400591;79;28519;-86
2021/10/30 12:46:52;;;;;;;8.00;4.50;;;;;;;16.45;53.43;99054.40;4440588;79;28489;-87
2021/10/30 12:52:53;;;;;;;9.80;4.42;;;;;;;16.28;53.93;99038.38;4368688;80;28561;-86
2021/10/30 12:59:00;;;;;;;7.00;3.90;;;;;;;16.30;53.40;99028.06;4373472;79;28509;-87
2021/10/30 13:05:15;;;;;;;6.45;3.52;;;;;;;16.28;52.72;99026.16;4392171;79;28499;-87
2021/10/30 13:11:18;;;;;;;7.25;3.30;;;;;;;16.45;53.36;99023.72;4384360;79;28582;-83
2021/10/30 13:17:20;;;;;;;4.47;2.70;;;;;;;16.48;49.90;99027.80;4387559;79;28534;-84
2021/10/30 13:23:21;;;;;;;4.30;2.60;;;;;;;16.72;49.80;99024.84;4261925;81;28503;-83
2021/10/30 13:29:23;;;;;;;3.95;2.67;;;;;;;16.62;48.68;99032.16;4375350;79;28569;-85
2021/10/30 13:35:24;;;;;;;8.40;3.10;;;;;;;16.49;51.07;99026.19;4378319;79;28465;-85
2021/10/30 13:41:27;;;;;;;5.47;3.08;;;;;;;16.38;51.52;99021.28;4372710;79;28504;-85
2021/10/30 13:47:29;;;;;;;4.35;2.95;;;;;;;16.37;51.59;99026.99;4386297;79;28461;-86
2021/10/30 13:53:31;;;;;;;6.22;3.08;;;;;;;16.23;50.28;99023.98;4387616;79;28499;-89
2021/10/30 13:59:33;;;;;;;4.50;2.55;;;;;;;16.28;51.17;99027.52;4390444;79;28451;-84
2021/10/30 14:05:35;;;;;;;4.37;2.70;;;;;;;16.12;51.49;99029.92;4421859;78;28444;-86
2021/10/30 14:11:36;;;;;;;5.95;3.50;;;;;;;16.02;51.48;99025.30;4376432;79;28495;-85
2021/10/30 14:17:38;;;;;;;7.92;3.65;;;;;;;15.88;51.66;99021.72;4413566;78;28530;-84
2021/10/30 14:23:41;;;;;;;7.00;3.37;;;;;;;15.84;52.73;99019.81;4399288;79;28459;-81
2021/10/30 14:29:42;;;;;;;7.00;3.35;;;;;;;15.75;52.74;99023.03;4426873;79;28486;-80
2021/10/30 14:35:43;;;;;;;5.47;3.20;;;;;;;15.64;53.05;99025.95;4448438;79;28511;-85
2021/10/30 14:41:45;;;;;;;6.37;3.17;;;;;;;15.51;53.04;99011.81;4410727;78;28551;-80
2021/10/30 14:47:46;;;;;;;5.40;2.98;;;;;;;15.32;53.59;99016.89;4412532;79;28543;-77
2021/10/30 14:53:47;;;;;;;6.97;4.10;;;;;;;15.18;53.63;99012.47;4331193;80;28560;-81
2021/10/30 14:59:49;;;;;;;8.95;3.72;;;;;;;15.17;55.12;99008.94;4407350;78;28503;-81
2021/10/30 15:05:50;;;;;;;6.87;3.60;;;;;;;14.82;58.18;99005.47;4308660;80;28564;-83
2021/10/30 15:11:52;;;;;;;6.97;3.50;;;;;;;14.67;58.06;99007.48;4354459;80;28450;-83
2021/10/30 15:17:53;;;;;;;7.53;3.95;;;;;;;14.42;58.56;99009.75;4335088;80;28469;-83
2021/10/30 15:23:57;;;;;;;12.53;4.47;;;;;;;14.11;60.85;99003.23;4317737;80;28527;-84
2021/10/30 15:29:58;;;;;;;9.45;4.28;;;;;;;13.88;61.51;99007.87;4345734;80;28524;-82
2021/10/30 15:36:02;;;;;;;8.93;4.42;;;;;;;13.54;64.92;99000.72;4349121;80;28522;-88
2021/10/30 15:42:03;;;;;;;7.17;4.28;;;;;;;13.13;68.96;99000.16;4320093;80;28575;-81
2021/10/30 15:48:05;;;;;;;8.55;4.55;;;;;;;12.95;65.87;98998.84;4334830;80;28535;-81
2021/10/30 15:54:06;;;;;;;9.13;4.45;;;;;;;12.88;63.68;99007.64;4333802;80;28471;-83
2021/10/30 16:00:10;;;;;;;10.70;4.47;;;;;;;12.85;63.38;99003.27;4334082;80;28529;-81
2021/10/30 16:06:12;;;;;;;9.00;4.08;;;;;;;12.67;64.41;99010.02;4334716;80;28521;-82
2021/10/30 16:12:18;;;;;;;8.55;4.20;;;;;;;12.58;63.32;99012.04;4338921;80;28462;-84
2021/10/30 16:18:17;;;;;;;9.48;4.90;;;;;;;12.05;72.20;99007.63;4347146;80;28468;-87
2021/10/30 16:24:18;;;;;;;9.25;4.53;;;;;;;11.99;70.26;99013.97;4327106;80;28535;-83
2021/10/30 16:30:31;;;;;;;12.33;4.58;;;;;;;11.86;69.22;99023.15;4333598;80;28552;-86
2021/10/30 16:36:29;;;;;;;9.70;4.65;;;;;;;11.71;70.23;99023.67;4337855;80;28502;-88
2021/10/30 16:42:30;;;;;;;10.58;5.20;;;;;;;11.38;73.24;99019.77;4340784;80;28534;-83
2021/10/30 16:48:32;;;;;;;8.90;4.70;;;;;;;11.19;74.97;99026.63;4346880;80;28527;-88
2021/10/30 16:54:33;;;;;;;11.55;5.20;;;;;;;10.76;85.50;99028.61;4394996;79;28456;-89
2021/10/30 17:00:35;;;;;;;12.88;5.40;;;;;;;10.69;81.57;99028.72;4369514;80;28511;-83
2021/10/30 17:06:36;;;;;;;11.53;5.50;;;;;;;10.50;83.65;99028.52;4361557;80;28470;-86
2021/10/30 17:12:39;;;;;;;9.73;5.53;;;;;;;10.43;81.87;99039.38;4416354;79;28446;-82
2021/10/30 17:18:41;;;;;;;11.35;5.65;;;;;;;10.34;82.55;99033.48;4394594;79;28503;-84
2021/10/30 17:24:42;;;;;;;12.47;5.70;;;;;;;10.35;78.27;99039.16;4361930;80;28441;-82
2021/10/30 17:30:44;;;;;;;8.98;5.08;;;;;;;10.26;81.95;99037.33;4354116;80;28464;-83
2021/10/30 17:36:45;;;;;;;12.18;5.75;;;;;;;10.24;80.69;99035.91;4344389;80;28493;-78
2021/10/30 17:42:46;;;;;;;12.55;6.40;;;;;;;9.94;92.68;99038.07;4350365;80;28461;-85
2021/10/30 17:48:48;;;;;;;12.55;6.12;;;;;;;9.88;87.75;99035.77;4330000;80;28516;-87
2021/10/30 17:54:50;;;;;;;14.93;5.95;;;;;;;9.80;86.66;99036.91;4352367;80;28531;-84
2021/10/30 18:00:51;;;;;;;14.43;6.30;;;;;;;9.73;86.09;99035.63;4362493;79;28540;-83
2021/10/30 18:06:53;;;;;;;13.05;6.20;;;;;;;9.52;96.82;99030.72;4381366;79;28509;-83
2021/10/30 18:12:55;;;;;;;11.08;5.75;;;;;;;9.47;91.50;99032.23;4382013;79;28456;-84
2021/10/30 18:18:58;;;;;;;11.33;5.70;;;;;;;9.42;90.36;99020.53;4397561;79;28503;-82
2021/10/30 18:25:02;;;;;;;10.63;5.50;;;;;;;9.12;98.98;99025.27;4375926;79;28586;-85
2021/10/30 18:31:06;;;;;;;10.23;5.00;;;;;;;9.18;92.38;99034.59;4388075;79;28563;-86
2021/10/30 18:37:07;;;;;;;9.73;5.03;;;;;;;9.46;85.42;99038.64;4380972;79;28479;-85
2021/10/30 18:43:11;;;;;;;11.35;5.75;;;;;;;9.36;87.32;99035.66;4401067;79;28563;-84
2021/10/30 18:49:12;;;;;;;11.43;5.25;;;;;;;9.31;87.86;99047.06;4415225;79;28566;-84
2021/10/30 18:55:15;;;;;;;12.03;5.37;;;;;;;9.25;87.75;99041.23;4381753;79;28555;-86
2021/10/30 19:01:17;;;;;;;10.25;5.30;;;;;;;9.38;84.08;99034.91;4363092;79;28455;-86
2021/10/30 19:07:18;;;;;;;10.65;5.00;;;;;;;9.55;79.45;99030.30;4344407;79;28447;-85
2021/10/30 19:13:19;;;;;;;11.55;5.47;;;;;;;9.97;74.45;99031.73;4338810;79;28440;-86
2021/10/30 19:19:23;;;;;;;9.30;5.17;;;;;;;10.30;71.83;99020.20;4369257;79;28489;-85
2021/10/30 19:25:25;;;;;;;10.05;4.97;;;;;;;10.60;68.99;99009.95;4364048;79;28513;-87
2021/10/30 19:31:27;;;;;;;9.18;5.05;;;;;;;10.83;67.55;99001.09;4359563;79;28466;-85
2021/10/30 19:37:31;;;;;;;9.65;4.85;;;;;;;10.96;65.93;99001.38;4373151;79;28560;-85
2021/10/30 19:43:35;;;;;;;10.13;4.70;;;;;;;11.09;65.33;99000.33;4429434;78;28478;-86
2021/10/30 19:49:38;;;;;;;8.78;4.87;;;;;;;11.00;65.59;99008.47;4352551;80;28438;-83
2021/10/30 19:55:43;;;;;;;8.03;4.05;;;;;;;10.88;66.02;99020.05;4346181;80;28506;-86
2021/10/30 20:01:44;;;;;;;7.83;4.25;;;;;;;10.79;65.87;99028.67;4351666;80;28456;-85
2021/10/30 20:07:49;;;;;;;9.53;4.20;;;;;;;10.70;66.87;99030.36;4369311;79;28488;-84
2021/10/30 20:13:51;;;;;;;9.35;4.62;;;;;;;10.55;68.62;99049.63;4366604;80;28516;-84
2021/10/30 20:19:54;;;;;;;11.83;5.87;;;;;;;10.43;69.12;99054.16;4429573;78;28522;-85
2021/10/30 20:26:01;;;;;;;13.03;6.12;;;;;;;10.13;73.32;99052.27;4362089;80;28500;-85
2021/10/30 20:32:03;;;;;;;13.30;6.15;;;;;;;9.92;73.97;99045.00;4399916;80;28490;-86
2021/10/30 20:38:13;;;;;;;10.98;5.97;;;;;;;9.70;78.06;99041.45;4340257;80;28531;-86
2021/10/30 20:44:14;;;;;;;11.28;5.00;;;;;;;9.36;82.08;99041.02;4346147;80;28480;-88
2021/10/30 20:50:19;;;;;;;9.75;5.12;;;;;;;9.01;85.70;99047.76;4348999;80;28519;-85
2021/10/30 20:56:24;;;;;;;11.40;4.80;;;;;;;8.92;87.18;99056.61;4412476;78;28433;-83
2021/10/30 21:02:25;;;;;;;7.70;4.17;;;;;;;9.06;80.50;99069.89;4422954;78;28449;-87
2021/10/30 21:08:26;;;;;;;8.38;4.08;;;;;;;9.16;78.54;99072.06;4425520;78;29008;-87
2021/10/30 21:14:27;;;;;;;10.28;4.25;;;;;;;9.13;77.75;99080.05;4437587;78;28546;-86
2021/10/30 21:20:29;;;;;;;9.08;4.53;;;;;;;9.06;79.25;99077.44;4377658;80;28480;-85
2021/10/30 21:26:32;;;;;;;8.95;4.20;;;;;;;8.97;81.28;99072.55;4379882;78;28465;-86
2021/10/30 21:32:34;;;;;;;9.83;4.08;;;;;;;9.12;78.32;99074.39;4346315;80;28455;-85
2021/10/30 21:38:37;;;;;;;9.85;4.28;;;;;;;9.24;76.67;99087.08;4338863;80;28505;-86
2021/10/30 21:44:39;;;;;;;9.53;4.70;;;;;;;9.33;75.10;99093.80;4327668;80;28461;-84
2021/10/30 21:50:41;;;;;;;9.68;4.95;;;;;;;9.25;75.77;99088.71;4352751;80;28553;-87
2021/10/30 21:56:42;;;;;;;11.95;5.55;;;;;;;9.01;80.36;99092.55;4351459;80;28492;-84
2021/10/30 22:02:44;;;;;;;10.40;5.35;;;;;;;8.90;80.60;99083.34;4342527;80;28849;-85
2021/10/30 22:08:45;;;;;;;10.05;4.83;;;;;;;8.82;81.82;99081.76;4359232;80;28433;-86
2021/10/30 22:14:46;;;;;;;8.58;5.00;;;;;;;8.74;81.58;99088.72;4340670;80;28491;-84
2021/10/30 22:20:48;;;;;;;7.97;4.80;;;;;;;8.68;82.65;99086.90;4413034;79;28445;-86
2021/10/30 22:26:49;;;;;;;8.20;4.37;;;;;;;8.43;86.55;99089.00;4419148;78;28503;-85
2021/10/30 22:32:51;;;;;;;10.45;4.75;;;;;;;8.56;83.92;99102.34;4406533;79;28538;-84
2021/10/30 22:38:54;;;;;;;10.10;4.53;;;;;;;8.34;88.68;99099.97;4444342;79;28508;-84
2021/10/30 22:44:55;;;;;;;10.38;4.97;;;;;;;8.53;83.82;99107.30;4395355;79;28478;-85
2021/10/30 22:50:57;;;;;;;11.22;5.20;;;;;;;8.65;83.96;99114.45;4368308;79;28440;-88
2021/10/30 22:56:58;;;;;;;9.38;5.10;;;;;;;8.65;85.24;99114.98;4345200;79;28515;-84
2021/10/30 23:03:01;;;;;;;10.82;5.50;;;;;;;8.50;85.78;99116.59;4393295;79;28463;-85
2021/10/30 23:09:02;;;;;;;10.43;5.75;;;;;;;8.30;87.09;99128.23;4381986;78;28565;-85
2021/10/30 23:15:05;;;;;;;10.45;4.95;;;;;;;7.85;93.16;99137.06;4378915;78;28447;-87
2021/10/30 23:21:07;;;;;;;9.30;4.95;;;;;;;7.77;93.50;99134.11;4402941;78;28480;-85
2021/10/30 23:27:08;;;;;;;11.03;5.10;;;;;;;7.51;96.92;99139.81;4402373;79;28433;-85
2021/10/30 23:33:10;;;;;;;12.20;5.17;;;;;;;7.14;100.00;99141.29;4385619;79;28455;-86
2021/10/30 23:39:11;;;;;;;10.23;5.25;;;;;;;7.07;100.00;99135.95;4369785;78;28436;-86
2021/10/30 23:45:13;;;;;;;8.58;4.80;;;;;;;6.91;100.00;99135.31;4412454;78;28561;-85
2021/10/30 23:51:14;;;;;;;11.53;4.35;;;;;;;7.05;100.00;99136.67;4381261;78;28490;-85
2021/10/30 23:57:16;;;;;;;10.45;5.45;;;;;;;6.80;100.00;99130.57;4392842;79;28527;-85
